WetterOnline ( https://www.wetteronline.ch )

Wetter aktuell Frankfurt am Main

Aktuelles Wetter: Offenbach (119m)

6-stündlich | Neueste Meldungen
Ortszeit Temperatur Wetter
Mi, 05.08. 2:00 13.7° C fast wolkenlos
Di, 04.08. 20:00 21.7° C leicht bewölkt
Di, 04.08. 14:00 23.7° C leicht bewölkt
Di, 04.08. 8:00 15.6° C wolkig
Di, 04.08. 2:00 17.3° C wolkig
Mo, 03.08. 20:00 22.1° C bedeckt
Mo, 03.08. 14:00 22.7° C wolkig
Mo, 03.08. 8:00 17.0° C bewölkt
Ortszeit Temperatur Wetter
Mi, 05.08. 3:30 12.2° C fast wolkenlos
Mi, 05.08. 3:20 12.2° C fast wolkenlos
Mi, 05.08. 3:10 12.5° C leicht bewölkt
Mi, 05.08. 3:00 12.7° C wolkig
Mi, 05.08. 2:50 12.7° C wolkig
Mi, 05.08. 2:40 12.9° C wolkig
Mi, 05.08. 2:30 13.2° C leicht bewölkt
Mi, 05.08. 2:00 13.7° C fast wolkenlos
Ortszeit Relative Feuchte Sichtweite
Mi, 05.08. 2:00 78% 50 km
Di, 04.08. 20:00 45% >70 km
Di, 04.08. 14:00 35% 60 km
Di, 04.08. 8:00 63% 65 km
Di, 04.08. 2:00 58% >70 km
Mo, 03.08. 20:00 41% 55 km
Mo, 03.08. 14:00 49% 40 km
Mo, 03.08. 8:00 77% 40 km
Ortszeit Relative Feuchte Sichtweite
Mi, 05.08. 3:30 85% 50 km
Mi, 05.08. 3:20 85% -
Mi, 05.08. 3:10 84% -
Mi, 05.08. 3:00 84% 45 km
Mi, 05.08. 2:50 84% -
Mi, 05.08. 2:40 82% -
Mi, 05.08. 2:30 80% 50 km
Mi, 05.08. 2:00 78% 50 km
Ortszeit Niederschlagsmenge Niederschlagsart
Mi, 05.08. 2:00 0.0 l/m2 in 6 Std. -
Di, 04.08. 20:00 0.0 l/m2 in 12 Std. -
Di, 04.08. 14:00 0.0 l/m2 in 6 Std. -
Di, 04.08. 8:00 0.0 l/m2 in 12 Std. -
Di, 04.08. 2:00 0.0 l/m2 in 6 Std. -
Mo, 03.08. 20:00 0.0 l/m2 in 12 Std. -
Mo, 03.08. 14:00 0.0 l/m2 in 6 Std. -
Mo, 03.08. 8:00 0.0 l/m2 in 12 Std. -
Ortszeit Niederschlagsmenge Niederschlagsart
Mi, 05.08. 3:30 0.0 l/m2 in 1 Std. -
Mi, 05.08. 3:20 keine Meldung -
Mi, 05.08. 3:10 keine Meldung -
Mi, 05.08. 3:00 0.0 l/m2 in 1 Std. -
Mi, 05.08. 2:50 keine Meldung -
Mi, 05.08. 2:40 keine Meldung -
Mi, 05.08. 2:30 0.0 l/m2 in 1 Std. -
Mi, 05.08. 2:00 0.0 l/m2 in 1 Std. -
Ortszeit Stärke Spitze Richtung
km/h Bft. km/h Grad Sektor
Mi, 05.08. 2:00 4 1 11 160° S
Di, 04.08. 20:00 4 1 29 140° SO
Di, 04.08. 14:00 13 3 26 280° W
Di, 04.08. 8:00 7 2 18 10° N
Di, 04.08. 2:00 6 1 19 10° N
Mo, 03.08. 20:00 7 2 26 20° N
Mo, 03.08. 14:00 7 2 26 30° NO
Mo, 03.08. 8:00 9 2 19 10° N
Ortszeit Stärke Spitze Richtung
km/h Bft. km/h Grad Sektor
Mi, 05.08. 3:30 4 1 7 130° SO
Mi, 05.08. 3:20 4 1 - 130° SO
Mi, 05.08. 3:10 4 1 - 130° SO
Mi, 05.08. 3:00 4 1 7 140° SO
Mi, 05.08. 2:50 4 1 - 140° SO
Mi, 05.08. 2:40 2 1 - 130° SO
Mi, 05.08. 2:30 4 1 7 150° SO
Mi, 05.08. 2:00 4 1 7 160° S
Ortszeit Untergrenze Bedeckung Gattung
total tief tief mittel hoch
Mi, 05.08. 2:00 9000 m 2/8 0/8 - - -
Di, 04.08. 20:00 2100 m 4/8 2/8 - - -
Di, 04.08. 14:00 1800 m 4/8 3/8 - - -
Di, 04.08. 8:00 2400 m 8/8 1/8 - - -
Di, 04.08. 2:00 2400 m 8/8 2/8 - - -
Mo, 03.08. 20:00 3300 m 8/8 8/8 - - -
Mo, 03.08. 14:00 2100 m 8/8 3/8 - - -
Mo, 03.08. 8:00 1800 m 8/8 4/8 - - -
Ortszeit Bedeckungsgrad in Achtel und Wolkenuntergrenze
Mi, 05.08. 3:30 1(10500m)
Mi, 05.08. 3:20 1(10500m)
Mi, 05.08. 3:10 3(10500m)
Mi, 05.08. 3:00 1(9000m) 7(10500m)
Mi, 05.08. 2:50 1(9000m) 7(10500m)
Mi, 05.08. 2:40 2(9000m) 7(10500m)
Mi, 05.08. 2:30 4(9000m) 6(10500m)
Mi, 05.08. 2:00 2(9000m)
Ortszeit Luftdruck NN (hPa) Tendenz (hPa in 3 Std.)
Mi, 05.08. 2:00 1018 + 0,4
Di, 04.08. 20:00 1016 + 0,2
Di, 04.08. 14:00 1015 - 0,1
Di, 04.08. 8:00 1015 + 1,4
Di, 04.08. 2:00 1012 + 1,0
Mo, 03.08. 20:00 1010 - 0,1
Mo, 03.08. 14:00 1012 - 1,0
Mo, 03.08. 8:00 1013 + 0,1
Ortszeit Luftdruck NN (hPa) Tendenz (hPa in 3 Std.)
Mi, 05.08. 3:30 1018 + 0,3
Mi, 05.08. 3:20 1018 keine Meldung
Mi, 05.08. 3:10 1018 keine Meldung
Mi, 05.08. 3:00 1018 + 0,3
Mi, 05.08. 2:50 1018 keine Meldung
Mi, 05.08. 2:40 1018 keine Meldung
Mi, 05.08. 2:30 1018 + 0,3
Mi, 05.08. 2:00 1018 + 0,4
Ortszeit Schneehöhe (cm)
Mi, 05.08. 2:00 -
Di, 04.08. 20:00 -
Di, 04.08. 14:00 -
Di, 04.08. 8:00 -
Di, 04.08. 2:00 -
Mo, 03.08. 20:00 -
Mo, 03.08. 14:00 -
Mo, 03.08. 8:00 -
Ortszeit Schneehöhe (cm)
Mi, 05.08. 3:30 -
Mi, 05.08. 3:20 -
Mi, 05.08. 3:10 -
Mi, 05.08. 3:00 -
Mi, 05.08. 2:50 -
Mi, 05.08. 2:40 -
Mi, 05.08. 2:30 -
Mi, 05.08. 2:00 -
Link zu dieser Seite / Seite empfehlen

Das Wetter in ...